createdAt,value
2022-10-29T00:00:00.320Z,48.1
2022-10-29T00:01:00.325Z,48.1
2022-10-29T00:02:00.652Z,48.0
2022-10-29T00:03:00.354Z,48.0
2022-10-29T00:04:00.309Z,48.1
2022-10-29T00:05:00.367Z,48.1
2022-10-29T00:06:00.471Z,48.1
2022-10-29T00:07:00.320Z,48.0
2022-10-29T00:08:00.505Z,48.4
2022-10-29T00:09:00.356Z,48.5
2022-10-29T00:10:00.368Z,48.3
2022-10-29T00:11:00.298Z,48.5
2022-10-29T00:12:00.299Z,48.1
2022-10-29T00:13:00.317Z,48.0
2022-10-29T00:14:00.516Z,48.2
2022-10-29T00:15:00.301Z,48.4
2022-10-29T00:16:00.313Z,48.3
2022-10-29T00:17:00.293Z,48.2
2022-10-29T00:18:00.302Z,47.9
2022-10-29T00:19:00.289Z,47.8
2022-10-29T00:20:00.630Z,47.8
2022-10-29T00:21:00.512Z,47.4
2022-10-29T00:22:00.300Z,48.1
2022-10-29T00:23:00.290Z,48.0
2022-10-29T00:24:00.296Z,48.4
2022-10-29T00:25:00.300Z,48.4
2022-10-29T00:26:00.430Z,48.4
2022-10-29T00:27:00.296Z,48.6
2022-10-29T00:28:00.312Z,48.6
2022-10-29T00:29:00.310Z,48.5
2022-10-29T00:30:00.310Z,48.6
2022-10-29T00:31:00.314Z,48.4
2022-10-29T00:32:00.483Z,48.4
2022-10-29T00:33:00.393Z,48.5
2022-10-29T00:34:00.301Z,48.6
2022-10-29T00:35:00.298Z,48.7
2022-10-29T00:36:00.460Z,48.9
2022-10-29T00:37:00.309Z,49.2
2022-10-29T00:38:00.626Z,49.3
2022-10-29T00:39:00.306Z,49.2
2022-10-29T00:40:00.307Z,49.3
2022-10-29T00:41:00.336Z,49.2
2022-10-29T00:42:00.296Z,49.5
2022-10-29T00:43:00.354Z,49.5
2022-10-29T00:44:00.544Z,49.9
2022-10-29T00:45:00.318Z,49.5
2022-10-29T00:46:00.352Z,49.5
2022-10-29T00:47:00.283Z,49.6
2022-10-29T00:48:00.307Z,49.5
2022-10-29T00:49:00.350Z,49.6
2022-10-29T00:50:00.459Z,49.9
2022-10-29T00:51:00.525Z,49.7
2022-10-29T00:52:00.292Z,49.9
2022-10-29T00:53:00.333Z,49.9
2022-10-29T00:54:00.307Z,49.9
2022-10-29T00:55:00.370Z,49.9
2022-10-29T00:56:00.620Z,49.8
2022-10-29T00:57:00.294Z,49.9
2022-10-29T00:58:00.312Z,50.2
2022-10-29T00:59:00.279Z,49.9
2022-10-29T01:00:00.442Z,49.7
2022-10-29T01:01:00.315Z,49.9
2022-10-29T01:02:00.717Z,50.0
2022-10-29T01:03:00.537Z,50.0
2022-10-29T01:04:00.312Z,50.1
2022-10-29T01:05:00.288Z,50.3
2022-10-29T01:06:00.460Z,50.2
2022-10-29T01:07:00.306Z,50.0
2022-10-29T01:08:00.405Z,50.5
2022-10-29T01:09:00.327Z,50.6
2022-10-29T01:10:00.332Z,50.7
2022-10-29T01:11:00.315Z,50.5
2022-10-29T01:12:00.284Z,50.6
2022-10-29T01:13:00.309Z,50.8
2022-10-29T01:14:00.440Z,50.8
2022-10-29T01:15:00.298Z,50.6
2022-10-29T01:16:00.302Z,51.0
2022-10-29T01:17:00.290Z,51.2
2022-10-29T01:18:00.320Z,51.3
2022-10-29T01:19:00.382Z,51.1
2022-10-29T01:20:00.539Z,51.6
2022-10-29T01:21:00.538Z,51.5
2022-10-29T01:22:00.310Z,51.3
2022-10-29T01:23:00.313Z,51.4
2022-10-29T01:24:00.321Z,51.6
2022-10-29T01:25:00.310Z,51.6
2022-10-29T01:26:00.406Z,51.6
2022-10-29T01:27:00.309Z,51.7
2022-10-29T01:28:00.381Z,51.8
2022-10-29T01:29:00.366Z,51.7
2022-10-29T01:30:00.384Z,51.7
2022-10-29T01:31:00.395Z,51.9
2022-10-29T01:32:00.539Z,51.8
2022-10-29T01:33:00.346Z,51.9
2022-10-29T01:34:00.307Z,51.8
2022-10-29T01:35:00.342Z,51.8
2022-10-29T01:36:00.468Z,52.0
2022-10-29T01:37:00.403Z,52.0
2022-10-29T01:38:00.422Z,51.9
2022-10-29T01:39:00.314Z,52.2
2022-10-29T01:40:00.285Z,52.6
2022-10-29T01:41:00.302Z,52.8
2022-10-29T01:42:00.302Z,52.5
2022-10-29T01:43:00.293Z,52.2
2022-10-29T01:44:00.432Z,52.4
2022-10-29T01:45:00.301Z,52.6
2022-10-29T01:46:00.281Z,52.1
2022-10-29T01:47:00.284Z,52.0
2022-10-29T01:48:00.293Z,52.6
2022-10-29T01:49:00.305Z,52.6
2022-10-29T01:50:00.468Z,52.6
2022-10-29T01:51:00.514Z,52.6
2022-10-29T01:52:00.298Z,52.9
2022-10-29T01:53:00.320Z,53.1
2022-10-29T01:54:00.301Z,53.1
2022-10-29T01:55:00.310Z,53.3
2022-10-29T01:56:00.473Z,53.1
2022-10-29T01:57:00.318Z,53.0
2022-10-29T01:58:00.299Z,52.8
2022-10-29T01:59:00.292Z,53.2
2022-10-29T02:00:00.359Z,53.0
2022-10-29T02:01:00.440Z,52.8
2022-10-29T02:02:00.512Z,53.2
2022-10-29T02:03:00.856Z,53.0
2022-10-29T02:04:00.289Z,53.0
2022-10-29T02:05:00.350Z,53.3
2022-10-29T02:06:00.334Z,53.8
2022-10-29T02:07:00.361Z,53.6
2022-10-29T02:08:00.399Z,53.9
2022-10-29T02:09:00.360Z,53.8
2022-10-29T02:10:00.323Z,53.7
2022-10-29T02:11:00.341Z,53.7
2022-10-29T02:12:00.298Z,53.7
2022-10-29T02:13:00.304Z,53.5
2022-10-29T02:14:00.513Z,53.7
2022-10-29T02:15:00.303Z,53.6
2022-10-29T02:16:00.297Z,53.7
2022-10-29T02:17:00.321Z,53.7
2022-10-29T02:18:00.342Z,53.7
2022-10-29T02:19:00.294Z,53.5
2022-10-29T02:20:00.514Z,54.0
2022-10-29T02:21:00.467Z,54.0
2022-10-29T02:22:00.280Z,53.6
2022-10-29T02:23:00.296Z,53.9
2022-10-29T02:24:00.293Z,54.0
2022-10-29T02:25:00.359Z,53.9
2022-10-29T02:26:00.449Z,53.9
2022-10-29T02:27:00.297Z,53.7
2022-10-29T02:28:00.297Z,53.5
2022-10-29T02:29:00.298Z,53.5
2022-10-29T02:30:00.303Z,53.5
2022-10-29T02:31:00.297Z,53.2
2022-10-29T02:32:00.437Z,53.3
2022-10-29T02:33:00.392Z,53.7
2022-10-29T02:34:00.307Z,53.6
2022-10-29T02:35:00.294Z,52.8
2022-10-29T02:36:00.459Z,51.9
2022-10-29T02:37:00.310Z,51.5
2022-10-29T02:38:00.421Z,51.4
2022-10-29T02:39:00.320Z,51.4
2022-10-29T02:40:00.301Z,51.4
2022-10-29T02:41:00.352Z,51.3
2022-10-29T02:42:00.362Z,51.6
2022-10-29T02:43:00.297Z,51.7
2022-10-29T02:44:00.475Z,51.9
2022-10-29T02:45:00.317Z,52.1
2022-10-29T02:46:00.298Z,52.3
2022-10-29T02:47:00.310Z,52.3
2022-10-29T02:48:00.339Z,52.4
2022-10-29T02:49:00.359Z,52.4
2022-10-29T02:50:00.472Z,52.6
2022-10-29T02:51:00.492Z,52.6
2022-10-29T02:52:00.297Z,52.7
2022-10-29T02:53:00.293Z,52.5
2022-10-29T02:54:00.369Z,52.7
2022-10-29T02:55:00.308Z,52.8
2022-10-29T02:56:00.503Z,52.5
2022-10-29T02:57:00.301Z,52.3
2022-10-29T02:58:00.321Z,52.5
2022-10-29T02:59:00.317Z,52.9
2022-10-29T03:00:00.764Z,52.8
2022-10-29T03:01:00.297Z,53.0
2022-10-29T03:02:00.554Z,53.2
2022-10-29T03:03:00.767Z,53.0
2022-10-29T03:04:00.296Z,52.9
2022-10-29T03:05:00.313Z,53.0
2022-10-29T03:06:00.341Z,52.9
2022-10-29T03:07:00.293Z,53.0
2022-10-29T03:08:00.437Z,52.9
2022-10-29T03:09:00.294Z,52.8
2022-10-29T03:10:00.303Z,52.7
2022-10-29T03:11:00.314Z,52.2
2022-10-29T03:12:00.292Z,52.3
2022-10-29T03:13:00.311Z,52.1
2022-10-29T03:14:00.414Z,51.9
2022-10-29T03:15:00.284Z,51.5
2022-10-29T03:16:00.305Z,51.0
2022-10-29T03:17:00.293Z,50.7
2022-10-29T03:18:00.312Z,50.7
2022-10-29T03:19:00.296Z,50.7
2022-10-29T03:20:00.447Z,50.7
2022-10-29T03:21:00.397Z,50.8
2022-10-29T03:22:00.314Z,50.8
2022-10-29T03:23:00.297Z,50.7
2022-10-29T03:24:00.302Z,50.8
2022-10-29T03:25:00.317Z,50.8
2022-10-29T03:26:00.648Z,50.9
2022-10-29T03:27:00.360Z,51.1
2022-10-29T03:28:00.329Z,51.1
2022-10-29T03:29:00.327Z,51.1
2022-10-29T03:30:00.337Z,51.3
2022-10-29T03:31:00.431Z,51.5
2022-10-29T03:32:00.464Z,51.1
2022-10-29T03:33:00.300Z,51.1
2022-10-29T03:34:00.298Z,51.6
2022-10-29T03:35:00.306Z,50.9
2022-10-29T03:36:00.485Z,50.9
2022-10-29T03:37:00.438Z,50.9
2022-10-29T03:38:00.422Z,51.1
2022-10-29T03:39:00.317Z,50.8
2022-10-29T03:40:00.316Z,50.0
2022-10-29T03:41:00.302Z,49.4
2022-10-29T03:42:00.288Z,49.5
2022-10-29T03:43:00.296Z,49.5
2022-10-29T03:44:00.446Z,49.4
2022-10-29T03:45:00.299Z,49.0
2022-10-29T03:46:00.283Z,49.0
2022-10-29T03:47:00.294Z,49.2
2022-10-29T03:48:00.319Z,49.4
2022-10-29T03:49:00.283Z,49.5
2022-10-29T03:50:00.468Z,49.5
2022-10-29T03:51:00.301Z,49.3
2022-10-29T03:52:00.457Z,49.2
2022-10-29T03:53:00.437Z,49.4
2022-10-29T03:54:00.295Z,49.8
2022-10-29T03:55:00.295Z,49.5
2022-10-29T03:56:00.486Z,49.4
2022-10-29T03:57:00.282Z,49.3
2022-10-29T03:58:00.299Z,49.2
2022-10-29T03:59:00.408Z,49.2
2022-10-29T04:00:00.360Z,49.3
2022-10-29T04:01:00.347Z,49.4
2022-10-29T04:02:00.742Z,49.6
2022-10-29T04:03:00.709Z,49.9
2022-10-29T04:04:00.341Z,49.9
2022-10-29T04:05:00.280Z,49.6
2022-10-29T04:06:00.299Z,49.4
2022-10-29T04:07:00.321Z,49.4
2022-10-29T04:08:00.566Z,49.6
2022-10-29T04:09:00.285Z,49.6
2022-10-29T04:10:00.296Z,49.7
2022-10-29T04:11:00.333Z,49.1
2022-10-29T04:12:00.351Z,48.6
2022-10-29T04:13:00.341Z,48.5
2022-10-29T04:14:00.477Z,48.5
2022-10-29T04:15:00.416Z,48.9
2022-10-29T04:16:00.318Z,48.8
2022-10-29T04:17:00.316Z,48.8
2022-10-29T04:18:00.309Z,49.0
2022-10-29T04:19:00.304Z,48.9
2022-10-29T04:20:00.434Z,47.8
2022-10-29T04:27:24.787Z,47.2
2022-10-29T04:29:00.326Z,46.3
2022-10-29T04:30:00.437Z,46.3
2022-10-29T04:31:00.297Z,46.1
2022-10-29T04:32:00.516Z,45.3
2022-10-29T04:33:00.424Z,42.0
2022-10-29T04:34:00.304Z,36.9
2022-10-29T04:35:00.299Z,32.7
2022-10-29T04:36:00.290Z,29.9
2022-10-29T04:37:00.317Z,27.6
2022-10-29T04:38:00.574Z,25.5
2022-10-29T04:39:00.308Z,23.9
2022-10-29T04:40:00.354Z,22.3
2022-10-29T04:41:00.370Z,20.6
2022-10-29T04:42:00.355Z,19.6
2022-10-29T04:43:00.298Z,18.4
2022-10-29T04:44:00.486Z,17.3
2022-10-29T04:45:00.324Z,16.4
2022-10-29T04:46:00.320Z,15.5
2022-10-29T04:47:00.304Z,14.5
2022-10-29T04:48:00.328Z,14.0
2022-10-29T04:49:00.419Z,13.4
2022-10-29T04:50:00.704Z,12.7
2022-10-29T04:51:00.331Z,12.2
2022-10-29T04:52:00.340Z,11.8
2022-10-29T04:53:00.456Z,11.8
2022-10-29T04:54:00.290Z,11.4
2022-10-29T04:55:00.294Z,11.1
2022-10-29T04:56:00.395Z,10.6
2022-10-29T04:57:00.297Z,10.2
2022-10-29T04:58:00.308Z,9.9
2022-10-29T04:59:00.308Z,9.4
2022-10-29T05:00:00.359Z,9.0
2022-10-29T05:01:00.393Z,9.1
2022-10-29T05:02:00.456Z,9.0
2022-10-29T05:03:00.485Z,8.7
2022-10-29T05:04:00.395Z,8.5
2022-10-29T05:05:00.306Z,7.9
2022-10-29T05:06:00.430Z,7.9
2022-10-29T05:07:00.466Z,7.5
2022-10-29T05:08:00.537Z,7.4
2022-10-29T05:09:00.292Z,7.2
2022-10-29T05:10:00.316Z,7.0
2022-10-29T05:11:00.324Z,6.8
2022-10-29T05:12:00.474Z,6.6
2022-10-29T05:13:00.279Z,6.4
2022-10-29T05:14:00.751Z,6.1
2022-10-29T05:15:00.402Z,6.0
2022-10-29T05:16:00.295Z,5.9
2022-10-29T05:17:00.389Z,5.9
2022-10-29T05:18:00.313Z,5.8
2022-10-29T05:19:00.289Z,5.3
2022-10-29T05:20:00.637Z,5.3
2022-10-29T05:21:00.336Z,5.2
2022-10-29T05:22:00.297Z,4.9
2022-10-29T05:23:00.383Z,4.8
2022-10-29T05:24:00.335Z,4.6
2022-10-29T05:25:00.307Z,4.3
2022-10-29T05:26:00.456Z,4.2
2022-10-29T05:27:00.303Z,4.0
2022-10-29T05:28:00.296Z,3.9
2022-10-29T05:29:00.305Z,3.8
2022-10-29T05:30:00.357Z,3.7
2022-10-29T05:31:00.421Z,3.6
2022-10-29T05:32:00.480Z,3.6
2022-10-29T05:33:00.375Z,3.5
2022-10-29T05:34:00.308Z,3.4
2022-10-29T05:35:00.329Z,3.3
2022-10-29T05:36:00.302Z,3.3
2022-10-29T05:37:00.315Z,3.2
2022-10-29T05:38:00.692Z,3.1
2022-10-29T05:39:00.383Z,3.2
2022-10-29T05:40:00.394Z,3.2
2022-10-29T05:41:00.460Z,3.2
2022-10-29T05:42:00.432Z,3.1
2022-10-29T05:43:00.851Z,3.0
2022-10-29T05:44:00.551Z,2.9
2022-10-29T05:45:00.391Z,2.4
2022-10-29T05:46:00.295Z,2.4
2022-10-29T05:47:00.323Z,2.3
2022-10-29T05:48:00.559Z,2.4
2022-10-29T05:49:00.305Z,2.7
2022-10-29T05:50:00.517Z,2.7
2022-10-29T05:51:00.288Z,2.4
2022-10-29T05:52:00.286Z,2.6
2022-10-29T05:53:00.366Z,2.4
2022-10-29T05:54:00.423Z,2.3
2022-10-29T05:55:00.300Z,2.2
2022-10-29T05:56:00.404Z,2.3
2022-10-29T05:57:00.298Z,2.0
2022-10-29T05:58:00.305Z,2.1
2022-10-29T05:59:00.315Z,2.1
2022-10-29T06:00:00.289Z,2.1
2022-10-29T06:01:00.386Z,1.9
2022-10-29T06:02:00.588Z,2.0
2022-10-29T06:03:00.709Z,2.2
2022-10-29T06:04:00.299Z,2.0
2022-10-29T06:05:00.396Z,2.0
2022-10-29T06:06:00.360Z,1.9
2022-10-29T06:07:00.374Z,1.9
2022-10-29T06:08:00.924Z,1.7
2022-10-29T06:09:00.424Z,1.9
2022-10-29T06:10:00.313Z,1.9
2022-10-29T06:11:00.313Z,1.8
2022-10-29T06:12:00.315Z,1.7
2022-10-29T06:13:00.295Z,1.9
2022-10-29T06:14:00.528Z,1.7
2022-10-29T06:15:00.298Z,1.6
2022-10-29T06:16:00.313Z,1.5
2022-10-29T06:17:00.291Z,1.3
2022-10-29T06:18:00.312Z,1.1
2022-10-29T06:19:00.305Z,1.1
2022-10-29T06:20:00.469Z,1.3
2022-10-29T06:21:00.316Z,1.3
2022-10-29T06:22:00.735Z,1.2
2022-10-29T06:23:00.357Z,1.2
2022-10-29T06:24:00.370Z,1.5
2022-10-29T06:25:00.349Z,2.2
2022-10-29T06:26:00.470Z,3.8
2022-10-29T06:27:00.457Z,6.8
2022-10-29T06:28:00.301Z,9.6
2022-10-29T06:29:00.328Z,11.7
2022-10-29T06:30:00.302Z,13.7
2022-10-29T06:31:00.318Z,15.4
2022-10-29T06:32:00.458Z,17.5
2022-10-29T06:33:00.318Z,19.1
2022-10-29T06:34:00.337Z,20.2
2022-10-29T06:35:00.332Z,21.0
2022-10-29T06:36:00.297Z,21.9
2022-10-29T06:37:00.310Z,23.9
2022-10-29T06:38:01.022Z,24.8
2022-10-29T06:39:00.411Z,25.3
2022-10-29T06:40:00.327Z,25.8
2022-10-29T06:41:00.310Z,26.4
2022-10-29T06:42:00.353Z,28.0
2022-10-29T06:43:00.306Z,28.5
2022-10-29T06:44:00.498Z,28.6
2022-10-29T06:45:00.309Z,29.2
2022-10-29T06:46:00.285Z,29.8
2022-10-29T06:47:00.302Z,30.5
2022-10-29T06:48:00.463Z,30.6
2022-10-29T06:49:00.336Z,30.8
2022-10-29T06:50:00.716Z,31.5
2022-10-29T06:51:00.330Z,31.5
2022-10-29T06:52:00.329Z,31.1
2022-10-29T06:53:00.551Z,31.5
2022-10-29T06:54:00.501Z,31.8
2022-10-29T06:55:00.294Z,32.0
2022-10-29T06:56:00.604Z,32.3
2022-10-29T06:57:00.305Z,32.8
2022-10-29T06:58:00.286Z,33.4
2022-10-29T06:59:00.371Z,33.4
2022-10-29T07:00:05.453Z,34.6
2022-10-29T07:01:00.324Z,34.5
2022-10-29T07:02:00.513Z,34.2
2022-10-29T07:03:00.560Z,34.4
2022-10-29T07:04:00.301Z,34.3
2022-10-29T07:05:00.291Z,34.2
2022-10-29T07:06:00.329Z,34.3
2022-10-29T07:07:00.317Z,34.3
2022-10-29T07:08:00.588Z,34.1
2022-10-29T07:09:00.298Z,34.3
2022-10-29T07:10:00.618Z,33.4
2022-10-29T07:11:00.279Z,30.7
2022-10-29T07:12:00.311Z,26.1
2022-10-29T07:13:00.341Z,21.7
2022-10-29T07:14:00.520Z,17.6
2022-10-29T07:15:00.323Z,14.5
2022-10-29T07:16:00.283Z,13.0
2022-10-29T07:17:00.342Z,11.0
2022-10-29T07:18:00.373Z,9.7
2022-10-29T07:19:00.294Z,8.7
2022-10-29T07:20:00.544Z,8.5
2022-10-29T07:21:00.292Z,7.4
2022-10-29T07:22:00.356Z,6.7
2022-10-29T07:23:00.459Z,5.9
2022-10-29T07:24:00.289Z,5.5
2022-10-29T07:25:01.382Z,5.2
2022-10-29T07:26:00.527Z,4.8
2022-10-29T07:27:00.304Z,4.7
2022-10-29T07:28:00.624Z,4.3
2022-10-29T07:29:00.344Z,4.1
2022-10-29T07:30:00.376Z,3.9
2022-10-29T07:31:00.292Z,3.7
2022-10-29T07:32:00.882Z,4.0
2022-10-29T07:33:00.315Z,3.7
2022-10-29T07:34:00.303Z,3.4
2022-10-29T07:35:00.292Z,3.4
2022-10-29T07:36:00.316Z,3.8
2022-10-29T07:37:00.308Z,4.2
2022-10-29T07:38:03.840Z,3.6
2022-10-29T07:39:00.312Z,3.1
2022-10-29T07:40:00.460Z,3.3
2022-10-29T07:41:00.302Z,2.9
2022-10-29T07:42:00.335Z,3.0
2022-10-29T07:43:00.295Z,2.6
2022-10-29T07:44:00.845Z,2.8
2022-10-29T07:45:00.322Z,2.9
2022-10-29T07:46:00.307Z,2.6
2022-10-29T07:47:00.291Z,2.5
2022-10-29T07:48:02.813Z,2.4
2022-10-29T07:49:00.325Z,2.3
2022-10-29T07:50:00.439Z,2.1
2022-10-29T07:51:00.297Z,1.9
2022-10-29T07:52:00.365Z,1.7
2022-10-29T07:53:00.337Z,1.7
2022-10-29T07:54:00.294Z,1.7
2022-10-29T07:55:00.497Z,1.6
2022-10-29T07:56:00.386Z,1.4
2022-10-29T07:57:00.281Z,0.8
2022-10-29T07:58:00.321Z,1.0
2022-10-29T07:59:00.329Z,1.0
2022-10-29T08:00:00.327Z,1.2
2022-10-29T08:01:00.466Z,1.1
2022-10-29T08:02:00.452Z,1.0
2022-10-29T08:03:00.366Z,0.9
2022-10-29T08:04:00.344Z,0.9
2022-10-29T08:05:00.369Z,0.7
2022-10-29T08:06:00.330Z,0.5
2022-10-29T08:07:00.331Z,0.6
2022-10-29T08:08:00.887Z,0.7
2022-10-29T08:09:00.319Z,1.0
2022-10-29T08:10:00.616Z,1.2
2022-10-29T08:11:00.308Z,1.1
2022-10-29T08:12:00.313Z,1.2
2022-10-29T08:13:00.913Z,1.0
2022-10-29T08:14:00.465Z,0.6
2022-10-29T08:15:00.305Z,1.1
2022-10-29T08:16:00.284Z,1.2
2022-10-29T08:17:00.302Z,1.0
2022-10-29T08:18:00.321Z,0.8
2022-10-29T08:19:00.308Z,0.9
2022-10-29T08:20:00.452Z,0.5
2022-10-29T08:21:00.310Z,0.0
2022-10-29T08:22:00.298Z,0.5
2022-10-29T08:23:00.769Z,1.1
2022-10-29T08:24:00.317Z,1.7
2022-10-29T08:25:00.528Z,1.5
2022-10-29T08:26:00.387Z,1.2
2022-10-29T08:27:00.304Z,0.8
2022-10-29T08:28:00.381Z,0.7
2022-10-29T08:29:00.309Z,0.6
2022-10-29T08:30:00.301Z,0.5
2022-10-29T08:31:00.304Z,0.4
2022-10-29T08:32:00.552Z,0.4
2022-10-29T08:33:00.859Z,0.4
2022-10-29T08:34:00.315Z,0.2
2022-10-29T08:35:00.363Z,0.6
2022-10-29T08:36:00.338Z,0.5
2022-10-29T08:37:00.348Z,0.5
2022-10-29T08:38:00.466Z,0.1
2022-10-29T08:39:00.314Z,0.5
2022-10-29T08:40:00.391Z,0.6
2022-10-29T08:41:00.286Z,0.2
2022-10-29T08:42:00.355Z,0.2
2022-10-29T08:43:00.311Z,0.1
2022-10-29T08:45:00.374Z,-0.1
2022-10-29T08:46:00.308Z,0.0
2022-10-29T08:47:02.466Z,0.1
2022-10-29T08:48:00.327Z,-0.2
2022-10-29T08:49:00.297Z,-0.8
2022-10-29T08:50:00.497Z,-0.7
2022-10-29T08:51:00.321Z,-0.4
2022-10-29T08:52:00.333Z,-0.3
2022-10-29T08:53:23.612Z,-0.6
2022-10-29T08:54:30.921Z,-0.8
2022-10-29T08:55:00.559Z,-0.6
2022-10-29T08:56:00.565Z,-0.4
2022-10-29T08:57:00.446Z,-0.3
2022-10-29T08:58:00.348Z,-0.2
2022-10-29T08:59:00.339Z,0.0
2022-10-29T09:00:00.446Z,-0.2
2022-10-29T09:01:00.595Z,-0.2
2022-10-29T09:02:00.767Z,0.1
2022-10-29T09:03:00.475Z,0.5
2022-10-29T09:04:00.425Z,0.5
2022-10-29T09:05:00.400Z,-0.0
2022-10-29T09:06:00.298Z,0.0
2022-10-29T09:07:00.642Z,-0.3
2022-10-29T09:08:02.303Z,-0.9
2022-10-29T09:09:00.481Z,-0.3
2022-10-29T09:10:01.324Z,-0.1
2022-10-29T09:11:00.556Z,-0.3
2022-10-29T09:12:00.410Z,-0.2
2022-10-29T09:13:00.521Z,-0.3
2022-10-29T09:14:00.621Z,-0.3
2022-10-29T09:15:00.418Z,-0.7
2022-10-29T09:16:00.325Z,-0.8
2022-10-29T09:17:00.437Z,-0.7
2022-10-29T09:18:00.461Z,-0.2
2022-10-29T09:19:00.399Z,0.1
2022-10-29T09:20:00.428Z,-0.4
2022-10-29T09:21:00.379Z,-0.3
2022-10-29T09:22:00.324Z,-0.4
2022-10-29T09:23:00.371Z,-0.6
2022-10-29T09:24:00.298Z,-0.2
2022-10-29T09:25:00.313Z,-0.2
2022-10-29T09:26:00.442Z,-0.5
2022-10-29T09:27:00.304Z,-0.5
2022-10-29T09:28:00.305Z,-0.7
2022-10-29T09:29:00.284Z,-0.8
2022-10-29T09:30:00.350Z,-0.6
2022-10-29T09:31:00.310Z,-0.7
2022-10-29T09:32:00.519Z,-0.5
2022-10-29T09:33:00.319Z,0.3
2022-10-29T09:34:01.841Z,-0.2
2022-10-29T09:35:00.349Z,-0.5
2022-10-29T09:36:00.321Z,-0.4
2022-10-29T09:37:00.305Z,-0.7
2022-10-29T09:38:00.737Z,-0.5
2022-10-29T09:39:00.313Z,-0.9
2022-10-29T09:40:00.388Z,-0.6
2022-10-29T09:41:00.405Z,-0.1
2022-10-29T09:42:00.423Z,-0.0
2022-10-29T09:43:00.311Z,-0.7
2022-10-29T09:44:00.513Z,-0.3
2022-10-29T09:45:00.278Z,-0.2
2022-10-29T09:46:00.298Z,-0.6
2022-10-29T09:47:03.301Z,-0.4
2022-10-29T09:48:00.325Z,-0.4
2022-10-29T09:49:00.362Z,-0.3
2022-10-29T09:50:05.391Z,0.3
2022-10-29T09:51:00.316Z,1.1
2022-10-29T09:52:00.372Z,0.8
2022-10-29T09:53:00.416Z,0.7
2022-10-29T09:54:00.293Z,0.5
2022-10-29T09:55:00.389Z,-0.1
2022-10-29T09:56:00.574Z,-0.2
2022-10-29T09:57:00.494Z,-0.4
2022-10-29T09:58:00.323Z,-0.2
2022-10-29T09:59:00.373Z,0.1
2022-10-29T10:00:00.319Z,-0.2
2022-10-29T10:01:00.326Z,0.2
2022-10-29T10:02:00.564Z,-0.2
2022-10-29T10:03:00.767Z,0.3
2022-10-29T10:05:00.294Z,0.5
2022-10-29T10:06:00.314Z,0.7
2022-10-29T10:07:00.314Z,0.9
2022-10-29T10:08:00.455Z,0.7
2022-10-29T10:09:00.338Z,0.3
2022-10-29T10:10:00.317Z,0.2
2022-10-29T10:11:00.289Z,-0.0
2022-10-29T10:12:00.620Z,-0.1
2022-10-29T10:13:00.301Z,0.0
2022-10-29T10:14:00.450Z,0.1
2022-10-29T10:15:00.311Z,0.1
2022-10-29T10:16:00.300Z,-0.1
2022-10-29T10:17:00.298Z,-0.1
2022-10-29T10:18:00.871Z,-0.4
2022-10-29T10:19:00.323Z,0.2
2022-10-29T10:20:00.455Z,0.1
2022-10-29T10:21:00.325Z,0.5
2022-10-29T10:22:00.615Z,1.1
2022-10-29T10:23:00.442Z,0.8
2022-10-29T10:24:00.315Z,1.0
2022-10-29T10:25:00.336Z,1.2
2022-10-29T10:26:04.099Z,1.0
2022-10-29T10:27:00.431Z,0.9
2022-10-29T10:28:00.417Z,0.7
2022-10-29T10:29:00.283Z,0.7
2022-10-29T10:30:00.326Z,0.8
2022-10-29T10:31:00.330Z,1.3
2022-10-29T10:32:00.411Z,1.8
2022-10-29T10:33:00.377Z,1.9
2022-10-29T10:34:00.395Z,1.9
2022-10-29T10:35:00.357Z,1.9
2022-10-29T10:36:00.362Z,1.9
2022-10-29T10:37:00.318Z,1.6
2022-10-29T10:38:00.663Z,1.7
2022-10-29T10:39:00.372Z,1.9
2022-10-29T10:40:00.311Z,1.8
2022-10-29T10:41:00.278Z,1.8
2022-10-29T10:42:00.343Z,2.1
2022-10-29T10:43:03.092Z,2.5
2022-10-29T10:44:00.511Z,1.9
2022-10-29T10:45:00.273Z,1.9
2022-10-29T10:46:00.274Z,2.0
2022-10-29T10:47:00.305Z,1.9
2022-10-29T10:48:00.712Z,1.9
2022-10-29T10:49:00.294Z,2.0
2022-10-29T10:50:00.435Z,2.0
2022-10-29T10:51:00.312Z,2.0
2022-10-29T10:52:00.262Z,2.3
2022-10-29T10:53:00.476Z,2.6
2022-10-29T10:54:00.410Z,3.1
2022-10-29T10:55:00.291Z,3.9
2022-10-29T10:56:00.950Z,3.2
2022-10-29T10:57:00.569Z,3.1
2022-10-29T10:58:00.390Z,3.2
2022-10-29T10:59:00.346Z,3.0
2022-10-29T11:00:00.450Z,2.8
2022-10-29T11:01:00.465Z,3.0
2022-10-29T11:02:00.744Z,3.5
2022-10-29T11:03:00.677Z,4.0
2022-10-29T11:04:00.770Z,4.4
2022-10-29T11:05:03.592Z,4.9
2022-10-29T11:06:00.251Z,4.5
2022-10-29T11:07:00.253Z,5.0
2022-10-29T11:08:00.562Z,4.7
2022-10-29T11:09:00.328Z,4.9
2022-10-29T11:10:00.275Z,4.6
2022-10-29T11:11:00.283Z,4.8
2022-10-29T11:12:00.280Z,4.6
2022-10-29T11:13:00.347Z,5.2
2022-10-29T11:14:00.501Z,5.3
2022-10-29T11:15:00.391Z,5.7
2022-10-29T11:16:00.458Z,5.1
2022-10-29T11:17:00.343Z,5.0
2022-10-29T11:18:00.827Z,5.4
2022-10-29T11:19:00.280Z,5.1
2022-10-29T11:20:00.464Z,5.2
2022-10-29T11:21:00.285Z,5.1
2022-10-29T11:22:00.320Z,4.7
2022-10-29T11:23:00.293Z,4.4
2022-10-29T11:24:00.301Z,4.5
2022-10-29T11:25:00.277Z,4.5
2022-10-29T11:26:00.491Z,5.2
2022-10-29T11:27:00.449Z,5.3
2022-10-29T11:28:00.312Z,5.1
2022-10-29T11:29:00.277Z,6.4
2022-10-29T11:30:00.278Z,7.5
2022-10-29T11:31:00.436Z,7.2
2022-10-29T11:32:00.463Z,7.0
2022-10-29T11:33:00.795Z,6.5
2022-10-29T11:34:00.279Z,6.6
2022-10-29T11:35:00.310Z,7.2
2022-10-29T11:36:01.712Z,7.6
2022-10-29T11:37:00.312Z,8.2
2022-10-29T11:38:00.554Z,7.5
2022-10-29T11:39:00.309Z,6.7
2022-10-29T11:40:00.324Z,6.1
2022-10-29T11:41:00.299Z,6.3
2022-10-29T11:42:00.291Z,6.8
2022-10-29T11:43:00.298Z,6.9
2022-10-29T11:44:00.450Z,7.7
2022-10-29T11:45:00.287Z,7.3
2022-10-29T11:46:00.610Z,7.7
2022-10-29T11:47:00.566Z,6.9
2022-10-29T11:48:00.536Z,6.5
2022-10-29T11:49:00.316Z,6.2
2022-10-29T11:50:00.464Z,6.3
2022-10-29T11:51:00.367Z,6.3
2022-10-29T11:52:00.297Z,6.0
2022-10-29T11:53:00.442Z,5.7
2022-10-29T11:54:00.294Z,5.8
2022-10-29T11:55:00.381Z,6.5
2022-10-29T11:56:00.454Z,7.4
2022-10-29T11:57:00.309Z,8.2
2022-10-29T11:58:00.410Z,8.3
2022-10-29T11:59:00.423Z,8.1
2022-10-29T12:00:00.376Z,8.3
2022-10-29T12:01:00.399Z,7.4
2022-10-29T12:02:00.544Z,7.8
2022-10-29T12:03:00.597Z,8.8
2022-10-29T12:04:00.442Z,9.3
2022-10-29T12:05:00.449Z,9.2
2022-10-29T12:06:00.449Z,9.7
2022-10-29T12:07:00.328Z,10.8
2022-10-29T12:08:00.443Z,10.5
2022-10-29T12:09:00.301Z,10.6
2022-10-29T12:10:00.436Z,11.9
2022-10-29T12:11:00.289Z,12.2
2022-10-29T12:12:00.282Z,12.1
2022-10-29T12:13:00.372Z,12.9
2022-10-29T12:14:00.457Z,13.1
2022-10-29T12:15:00.333Z,13.4
2022-10-29T12:16:00.310Z,14.1
2022-10-29T12:17:00.319Z,14.9
2022-10-29T12:18:00.910Z,15.1
2022-10-29T12:19:00.325Z,15.9
2022-10-29T12:20:00.502Z,17.1
2022-10-29T12:21:00.345Z,17.1
2022-10-29T12:22:00.296Z,17.0
2022-10-29T12:23:04.004Z,16.4
2022-10-29T12:24:00.349Z,16.1
2022-10-29T12:25:00.317Z,17.6
2022-10-29T12:26:00.500Z,17.6
2022-10-29T12:27:00.322Z,17.8
2022-10-29T12:28:00.311Z,18.9
2022-10-29T12:29:00.353Z,19.7
2022-10-29T12:30:00.304Z,18.7
2022-10-29T12:31:00.374Z,17.5
2022-10-29T12:32:00.458Z,17.7
2022-10-29T12:33:00.590Z,18.4
2022-10-29T12:34:00.371Z,18.7
2022-10-29T12:35:00.379Z,18.2
2022-10-29T12:36:03.517Z,18.0
2022-10-29T12:37:00.349Z,18.1
2022-10-29T12:38:00.598Z,18.1
2022-10-29T12:39:00.333Z,18.4
2022-10-29T12:40:00.288Z,18.3
2022-10-29T12:41:00.378Z,18.7
2022-10-29T12:42:00.294Z,18.7
2022-10-29T12:43:00.303Z,19.5
2022-10-29T12:44:00.526Z,19.3
2022-10-29T12:45:00.312Z,19.7
2022-10-29T12:47:00.282Z,19.6
2022-10-29T12:48:00.444Z,19.4
2022-10-29T12:49:00.295Z,19.5
2022-10-29T12:50:00.793Z,19.4
2022-10-29T12:51:00.312Z,20.2
2022-10-29T12:52:00.296Z,20.8
2022-10-29T12:53:00.438Z,19.8
2022-10-29T12:54:00.284Z,20.1
2022-10-29T12:55:00.313Z,20.2
2022-10-29T12:56:00.469Z,19.9
2022-10-29T12:57:00.299Z,20.5
2022-10-29T12:58:00.317Z,20.9
2022-10-29T12:59:00.291Z,21.8
2022-10-29T13:00:00.327Z,21.9
2022-10-29T13:01:00.423Z,20.9
2022-10-29T13:02:11.547Z,20.8
2022-10-29T13:03:00.968Z,21.1
2022-10-29T13:04:00.310Z,21.1
2022-10-29T13:05:00.320Z,21.1
2022-10-29T13:06:00.374Z,21.5
2022-10-29T13:07:00.464Z,21.5
2022-10-29T13:08:00.623Z,21.2
2022-10-29T13:09:00.380Z,21.2
2022-10-29T13:10:00.311Z,21.3
2022-10-29T13:11:00.323Z,21.2
2022-10-29T13:12:00.326Z,21.1
2022-10-29T13:13:00.392Z,21.5
2022-10-29T13:14:00.461Z,21.5
2022-10-29T13:15:00.318Z,21.7
2022-10-29T13:16:00.302Z,21.4
2022-10-29T13:17:00.318Z,21.7
2022-10-29T13:18:00.578Z,21.5
2022-10-29T13:19:00.293Z,21.4
2022-10-29T13:20:00.429Z,21.4
2022-10-29T13:21:00.295Z,21.8
2022-10-29T13:22:00.326Z,21.7
2022-10-29T13:23:00.728Z,21.8
2022-10-29T13:24:00.316Z,21.8
2022-10-29T13:25:00.299Z,22.0
2022-10-29T13:26:00.464Z,21.9
2022-10-29T13:27:00.304Z,22.0
2022-10-29T13:28:00.279Z,21.8
2022-10-29T13:29:00.287Z,22.3
2022-10-29T13:30:00.392Z,22.6
2022-10-29T13:31:00.294Z,22.5
2022-10-29T13:32:04.510Z,22.4
2022-10-29T13:33:00.724Z,22.6
2022-10-29T13:34:00.286Z,22.5
2022-10-29T13:35:00.340Z,22.5
2022-10-29T13:36:00.312Z,22.7
2022-10-29T13:37:00.299Z,22.7
2022-10-29T13:38:00.576Z,22.4